Home > Products > Valid Products > TAF

000
FTUS41 KCAR 212013 AAB
TAFBGR
TAF AMD
KBGR 212013Z 2120/2218 35004KT P6SM SCT015 BKN035
     FM212200 VRB03KT 6SM -SN SCT015 OVC025
     FM220100 03004KT 4SM -SN SCT007 OVC015
     FM220700 05004KT 6SM -SN OVC007
     FM221200 07005KT P6SM SCT007 OVC020=



000
FTUS41 KCAR 211814 AAA
TAFBGR
TAF AMD
KBGR 211814Z 2118/2218 35004KT P6SM BKN007
     FM212100 VRB03KT 6SM -SN SCT015 OVC025
     FM220100 03004KT 4SM -SN SCT007 OVC015
     FM220700 05004KT 6SM -SN OVC007
     FM221200 07005KT P6SM SCT007 OVC020=



000
FTUS41 KCAR 211749 AAB
TAFCAR
TAF AMD
KCAR 211749Z 2118/2218 22005KT P6SM SCT007 OVC015
     FM212000 VRB03KT P6SM SCT007 OVC025
     FM212300 VRB03KT P6SM SCT015 BKN035
     FM220300 VRB03KT P6SM -SN SCT007 OVC020
     FM220800 00000KT 5SM BR SCT006 OVC015=



000
FTUS41 KCAR 211748 AAA
TAFCAR
TAF AMD
KCAR 211748Z 2118/2218 22005KT P6SM SCT007 OVC015
     FM212000 VRB03KT P6SM SCT007 OVC015
     FM212200 VRB03KT P6SM SCT015 BKN035
     FM220300 VRB03KT P6SM -SN SCT007 OVC020
     FM220800 00000KT 5SM BR SCT006 OVC015=



000
FTUS41 KCAR 211748
TAFBGR
TAF
KBGR 211748Z 2118/2218 35004KT P6SM SCT015 OVC035
     FM212200 VRB03KT 6SM -SN SCT015 OVC025
     FM220100 03004KT 4SM -SN SCT007 OVC015
     FM220700 05004KT 6SM -SN OVC007
     FM221200 07005KT P6SM SCT007 OVC020=



000
FTUS41 KCAR 211748
TAFHUL
TAF
KHUL 211748Z 2118/2218 10005KT P6SM SCT015 OVC025
     FM212100 VRB03KT 6SM -SN SCT010 OVC020
     FM220000 VRB03KT P6SM SCT020 BKN040
     FM220600 00000KT 5SM BR SCT010 OVC020
     FM221200 VRB03KT P6SM SCT020 OVC040=



000
FTUS41 KCAR 211748
TAFBHB
TAF
KBHB 211748Z 2118/2218 34004KT P6SM -SHSN FEW009 SCT020 OVC030
     FM212200 VRB03KT 6SM -SN SCT015 OVC025
     FM220100 03004KT 4SM -SN SCT007 OVC015
     FM220700 05004KT 6SM -SN OVC007
     FM221200 07005KT P6SM SCT007 OVC025
      AMD LTD TO CLD VIS AND WIND=



000
FTUS41 KCAR 211748
TAFPQI
TAF
KPQI 211748Z 2118/2218 VRB03KT P6SM OVC025
     FM212000 VRB03KT P6SM SCT007 OVC015
     FM212200 VRB03KT P6SM SCT015 BKN035
     FM220300 VRB03KT P6SM -SN SCT007 OVC020
     FM220800 00000KT 5SM BR SCT006 OVC015
      AMD LTD TO CLD VIS AND WIND=



000
FTUS41 KCAR 211748
TAFCAR
TAF
KCAR 211748Z 2118/2218 22005KT P6SM OVC007
     FM212000 VRB03KT P6SM SCT007 OVC015
     FM212200 VRB03KT P6SM SCT015 BKN035
     FM220300 VRB03KT P6SM -SN SCT007 OVC020
     FM220800 00000KT 5SM BR SCT006 OVC015=



000
FTUS41 KCAR 211703 AAA
TAFPQI
TAF AMD
KPQI 211703Z 2117/2212 VRB03KT P6SM OVC025
     FM220000 VRB03KT P6SM SCT007 BKN200
      AMD LTD TO CLD VIS AND WIND=



000
FTUS41 KCAR 211700 AAB
TAFCAR
TAF AMD
KCAR 211700Z 2117/2212 VRB03KT P6SM OVC007
     FM220700 VRB03KT P6SM -SN SCT007 OVC015=



000
FTUS41 KCAR 211203 RRA
TAFCAR
TAF
KCAR 211203Z 2112/2212 VRB03KT 6SM -FZDZ SCT007 OVC010=



000
FTUS41 KCAR 211203 RRA
TAFHUL
TAF
KHUL 211203Z 2112/2212 VRB03KT P6SM -FZDZ OVC015=



000
FTUS41 KCAR 211203 RRA
TAFBGR
TAF
KBGR 211203Z 2112/2212 35004KT P6SM -SHSN FEW009 SCT015 OVC025
     FM211700 03004KT P6SM OVC012=



000
FTUS41 KCAR 211203 RRA
TAFPQI
TAF
KPQI 211203Z 2112/2212 VRB03KT 6SM -FZDZ OVC014
      AMD LTD TO CLD VIS AND WIND=



000
FTUS41 KCAR 211203 RRA
TAFBHB
TAF
KBHB 211203Z 2112/2212 34004KT P6SM -SHSN FEW009 SCT020 OVC030
      AMD LTD TO CLD VIS AND WIND=



000
FTUS41 KCAR 211203 CCA
TAFPQI
TAF COR
KPQI 211203Z 2112/2212 VRB03KT 6SM -FZDZ OVC014
      AMD LTD TO CLD VIS AND WIND=



000
FTUS41 KCAR 211203 CCA
TAFBGR
TAF COR
KBGR 211203Z 2112/2212 35004KT P6SM -SHSN FEW009 SCT015 OVC025
     FM211700 03004KT P6SM OVC012=



000
FTUS41 KCAR 211203 CCA
TAFBHB
TAF COR
KBHB 211203Z 2112/2212 34004KT P6SM -SHSN FEW009 SCT020 OVC030
      AMD LTD TO CLD VIS AND WIND=



000
FTUS41 KCAR 211203 CCA
TAFHUL
TAF COR
KHUL 211203Z 2112/2212 VRB03KT P6SM -FZDZ OVC015=



000
FTUS41 KCAR 211203 CCA
TAFCAR
TAF COR
KCAR 211203Z 2112/2212 VRB03KT 6SM -FZDZ SCT007 OVC010=



000
FTUS41 KCAR 211203 RRA
TAFBGR
TAF
KBGR 211203Z 2112/2212 35004KT P6SM -SHSN FEW009 SCT015 OVC025
     FM211700 03004KT P6SM OVC012=



000
FTUS41 KCAR 211203 RRA
TAFHUL
TAF
KHUL 211203Z 2112/2212 VRB03KT P6SM -FZDZ OVC015=



000
FTUS41 KCAR 211203 RRA
TAFBHB
TAF
KBHB 211203Z 2112/2212 34004KT P6SM -SHSN FEW009 SCT020 OVC030
      AMD LTD TO CLD VIS AND WIND=



000
FTUS41 KCAR 211203 RRA
TAFPQI
TAF
KPQI 211203Z 2112/2212 VRB03KT 6SM -FZDZ OVC014
      AMD LTD TO CLD VIS AND WIND=



000
FTUS41 KCAR 211203 RRA
TAFCAR
TAF
KCAR 211203Z 2112/2212 VRB03KT 6SM -FZDZ SCT007 OVC010=



000
FTUS41 KCAR 211203 CCA
TAFBGR
TAF COR
KBGR 211203Z 2112/2212 35004KT P6SM -SHSN FEW009 SCT015 OVC025
     FM211700 03004KT P6SM OVC012=



000
FTUS41 KCAR 211203 CCA
TAFBHB
TAF COR
KBHB 211203Z 2112/2212 34004KT P6SM -SHSN FEW009 SCT020 OVC030
      AMD LTD TO CLD VIS AND WIND=



000
FTUS41 KCAR 211203 CCA
TAFPQI
TAF COR
KPQI 211203Z 2112/2212 VRB03KT 6SM -FZDZ OVC014
      AMD LTD TO CLD VIS AND WIND=



000
FTUS41 KCAR 211203 CCA
TAFCAR
TAF COR
KCAR 211203Z 2112/2212 VRB03KT 6SM -FZDZ SCT007 OVC010=



000
FTUS41 KCAR 211203 CCA
TAFHUL
TAF COR
KHUL 211203Z 2112/2212 VRB03KT P6SM -FZDZ OVC015=



000
FTUS41 KCAR 210800 AAA
TAFBHB
TAF AMD
KBHB 210800Z 2108/2206 34004KT P6SM FEW009 SCT020 OVC035
      AMD LTD TO CLD VIS AND WIND=



000
FTUS41 KCAR 210759 AAB
TAFBGR
TAF AMD
KBGR 210759Z 2108/2206 35004KT P6SM FEW009 SCT020 OVC035
     FM211700 03004KT P6SM OVC012=



000
FTUS41 KCAR 210721 AAA
TAFBGR
TAF AMD
KBGR 210721Z 2107/2206 35004KT P6SM SCT009 OVC020
     FM211700 03004KT P6SM OVC012=



000
FTUS41 KCAR 210559
TAFHUL
TAF
KHUL 210559Z 2106/2206 VRB03KT P6SM OVC015=



000
FTUS41 KCAR 210559
TAFBHB
TAF
KBHB 210559Z 2106/2206 34004KT P6SM SCT009 OVC020
      AMD LTD TO CLD VIS AND WIND=



000
FTUS41 KCAR 210559
TAFCAR
TAF
KCAR 210559Z 2106/2206 VRB03KT 6SM -FZDZ SCT007 OVC010
     FM212300 VRB03KT P6SM OVC009=



000
FTUS41 KCAR 210559
TAFBGR
TAF
KBGR 210559Z 2106/2206 33006KT P6SM SCT009 OVC020
     FM210700 01006KT 6SM BR BKN010 OVC020
     FM211700 03004KT P6SM OVC012=



000
FTUS41 KCAR 210559
TAFPQI
TAF
KPQI 210559Z 2106/2206 VRB03KT 6SM -FZDZ OVC014
      AMD LTD TO CLD VIS AND WIND=



000
FTUS41 KCAR 210559
TAFBHB
TAF
KBHB 210559Z 2106/2206 34004KT P6SM SCT009 OVC020
      AMD LTD TO CLD VIS AND WIND=



000
FTUS41 KCAR 210559
TAFHUL
TAF
KHUL 210559Z 2106/2206 VRB03KT P6SM OVC015=



000
FTUS41 KCAR 210434 AAA
TAFBGR
TAF AMD
KBGR 210434Z 2105/2124 34006KT P6SM SCT009 OVC025
      TEMPO 2105/2106 BKN009
     FM210600 36006KT P6SM OVC015
     FM211800 02006KT P6SM OVC025=



000
FTUS41 KCAR 210434 AAA
TAFBGR
TAF AMD
KBGR 210434Z 2105/2124 34006KT P6SM SCT009 OVC025
      TEMPO 2105/2106 BKN009
     FM210600 36006KT P6SM OVC015
     FM211800 02006KT P6SM OVC025=



000
FTUS41 KCAR 202323
TAFHUL
TAF
KHUL 202323Z 2100/2124 VRB03KT P6SM VCSH OVC015
      TEMPO 2100/2104 -SHSN
     FM210400 VRB03KT P6SM OVC015
     FM211800 VRB03KT P6SM OVC020=



000
FTUS41 KCAR 202323
TAFPQI
TAF
KPQI 202323Z 2100/2124 VRB03KT P6SM VCSH OVC015
      TEMPO 2100/2104 -SHSN
     FM210400 VRB03KT P6SM OVC015
     FM211800 VRB03KT P6SM OVC020
      AMD LTD TO CLD VIS AND WIND=



000
FTUS41 KCAR 202323
TAFCAR
TAF
KCAR 202323Z 2100/2124 VRB03KT P6SM VCSH OVC015
      TEMPO 2100/2104 6SM -SHSN
     FM210400 VRB03KT P6SM OVC015
     FM211800 VRB03KT P6SM OVC020=



000
FTUS41 KCAR 202323
TAFBGR
TAF
KBGR 202323Z 2100/2124 02006KT P6SM OVC015
     FM211800 02006KT P6SM OVC025=



000
FTUS41 KCAR 202323
TAFBHB
TAF
KBHB 202323Z 2100/2124 36004KT P6SM OVC020
     FM210800 36004KT P6SM VCSH OVC015
     FM211800 02006KT P6SM OVC025
      AMD LTD TO CLD VIS AND WIND=



000
FTUS41 KCAR 202219 AAA
TAFHUL
TAF AMD
KHUL 202219Z 2022/2118 36004KT P6SM VCSH OVC015
      TEMPO 2022/2102 -SHSN
     FM210200 VRB03KT P6SM OVC015=



000
FTUS41 KCAR 202216 AAA
TAFCAR
TAF AMD
KCAR 202216Z 2022/2118 32004KT P6SM VCSH OVC010
      TEMPO 2022/2102 3SM -SHSN
     FM210200 VRB03KT P6SM OVC010=



000
FTUS41 KCAR 202212 AAA
TAFPQI
TAF AMD
KPQI 202212Z 2022/2118 36004KT P6SM VCSH OVC015
      TEMPO 2022/2102 -SHSN
     FM210200 VRB03KT P6SM OVC015
      AMD LTD TO CLD VIS AND WIND=



000
FTUS41 KCAR 201722
TAFBGR
TAF
KBGR 201722Z 2018/2118 02009KT P6SM -SN OVC010
     FM210900 36004KT 3SM -SHSN BR OVC007=



000
FTUS41 KCAR 201722
TAFCAR
TAF
KCAR 201722Z 2018/2118 07004KT 2SM -SN OVC012=



000
FTUS41 KCAR 201722
TAFPQI
TAF
KPQI 201722Z 2018/2118 02004KT 2SM -SN BR OVC015
      AMD LTD TO CLD VIS AND WIND=



000
FTUS41 KCAR 201722
TAFBHB
TAF
KBHB 201722Z 2018/2118 36012KT P6SM OVC012
     FM210000 01005KT 3SM -SHSN OVC008
      AMD LTD TO CLD VIS AND WIND=



000
FTUS41 KCAR 201722
TAFHUL
TAF
KHUL 201722Z 2018/2118 VRB03KT 5SM -SN BR OVC014=



000
FTUS41 KCAR 201709 AAG
TAFCAR
TAF AMD
KCAR 201709Z 2017/2112 07004KT 2SM -SN OVC012
     FM201900 05002KT P6SM -SHSN OVC008=



000
FTUS41 KCAR 201709 AAD
TAFPQI
TAF AMD
KPQI 201709Z 2017/2112 02004KT 2SM -SN BR OVC015
     FM202000 05002KT P6SM -SHSN OVC009
      AMD LTD TO CLD VIS AND WIND=



000
FTUS41 KCAR 201358 AAD
TAFCAR
TAF AMD
KCAR 201358Z 2014/2112 01004KT 3SM -SN OVC007
     FM201700 05002KT P6SM -SHSN OVC008=



000
FTUS41 KCAR 201204 CCA
TAFPQI
TAF COR
KPQI 201204Z 2012/2112 02004KT P6SM OVC012
     FM201700 05002KT P6SM OVC009
      AMD LTD TO CLD VIS AND WIND=



000
FTUS41 KCAR 201204 CCB
TAFCAR
TAF COR
KCAR 201204Z 2012/2112 01004KT P6SM OVC010
     FM201700 05002KT P6SM -SHSN OVC008=



000
FTUS41 KCAR 201204 CCA
TAFBHB
TAF COR
KBHB 201204Z 2012/2112 36004KT P6SM SCT015
     FM201300 02006KT P6SM BKN015
     FM210000 01005KT 6SM -SHSN BKN008
      AMD LTD TO CLD VIS AND WIND=



000
FTUS41 KCAR 201204 CCA
TAFBGR
TAF COR
KBGR 201204Z 2012/2112 01006KT P6SM SCT015
     FM201300 01006KT P6SM BKN015
     FM201900 05002KT P6SM OVC009=



000
FTUS41 KCAR 201204 CCA
TAFHUL
TAF COR
KHUL 201204Z 2012/2112 VRB03KT P6SM OVC014
     FM201600 02004KT P6SM BKN008=



000
FTUS41 KCAR 201202 RRA
TAFPQI
TAF
KPQI 201202Z 2012/2112 02004KT P6SM OVC012
     FM201700 05002KT P6SM OVC009
      AMD LTD TO CLD VIS AND WIND=



000
FTUS41 KCAR 201202 RRA
TAFHUL
TAF
KHUL 201202Z 2012/2112 VRB03KT P6SM OVC014
     FM201600 02004KT P6SM BKN008=



000
FTUS41 KCAR 201202 RRA
TAFCAR
TAF
KCAR 201202Z 2012/2112 01004KT P6SM OVC010
     FM201700 05002KT P6SM -SHSN OVC008=



000
FTUS41 KCAR 201202 RRA
TAFBHB
TAF
KBHB 201202Z 2012/2112 36004KT P6SM SCT015
     FM201300 02006KT P6SM BKN015
     FM210000 01005KT 6SM -SHSN BKN008
      AMD LTD TO CLD VIS AND WIND=



000
FTUS41 KCAR 201202 RRA
TAFBGR
TAF
KBGR 201202Z 2012/2112 01006KT P6SM SCT015
     FM201300 01006KT P6SM BKN015
     FM201900 05002KT P6SM OVC009=



000
FTUS41 KCAR 201140 AAC
TAFHUL
TAF AMD
KHUL 201140Z 2012/2106 VRB03KT P6SM BKN014
     FM201800 VRB03KT P6SM BKN010
     FM202100 05002KT P6SM OVC008=



000
FTUS41 KCAR 201101 AAA
TAFBGR
TAF AMD
KBGR 201101Z 2011/2106 33006KT P6SM SKC
     FM201300 01006KT P6SM BKN020
     FM201700 01006KT P6SM BKN010
     FM202100 05002KT P6SM OVC009=



000
FTUS41 KCAR 201032 AAC
TAFPQI
TAF AMD
KPQI 201032Z 2011/2106 VRB03KT P6SM SKC
     FM201200 02004KT P6SM BKN010
     FM201800 05002KT P6SM OVC009
      AMD LTD TO CLD VIS AND WIND=



000
FTUS41 KCAR 201031 AAB
TAFCAR
TAF AMD
KCAR 201031Z 2011/2106 34004KT P6SM SKC
     FM201200 01004KT P6SM -SHSN OVC015
     FM201800 05002KT P6SM -SHSN OVC008=



000
FTUS41 KCAR 201015 AAB
TAFHUL
TAF AMD
KHUL 201015Z 2010/2106 VRB03KT P6SM SCT020
     FM201300 02004KT P6SM BKN008
     FM201800 VRB03KT P6SM BKN010
     FM202100 05002KT P6SM OVC008=



000
FTUS41 KCAR 200953 AAA
TAFHUL
TAF AMD
KHUL 200953Z 2010/2106 VRB03KT P6SM BKN020
     FM201300 02004KT P6SM BKN008
     FM201800 VRB03KT P6SM BKN010
     FM202100 05002KT P6SM OVC008=



000
FTUS41 KCAR 200937 AAB
TAFPQI
TAF AMD
KPQI 200937Z 2010/2106 VRB03KT P6SM SKC
     FM201030 02004KT P6SM BKN010
     FM202200 05002KT P6SM OVC009
      AMD LTD TO CLD VIS AND WIND=



000
FTUS41 KCAR 200936 AAD
TAFCAR
TAF AMD
KCAR 200936Z 2010/2106 34004KT P6SM SKC
     FM201030 01004KT P6SM -SHSN OVC009
     FM202100 05002KT P6SM -SHSN OVC008=



000
FTUS41 KCAR 200859 AAC
TAFCAR
TAF AMD
KCAR 200859Z 2009/2106 34004KT P6SM SKC
     FM200930 01004KT P6SM -SHSN OVC009
     FM202100 05002KT P6SM -SHSN OVC008=



000
FTUS41 KCAR 200800 AAB
TAFCAR
TAF AMD
KCAR 200800Z 2008/2106 34004KT P6SM SKC
     FM200900 01004KT P6SM -SHSN OVC009
     FM202100 05002KT P6SM -SHSN OVC008=



000
FTUS41 KCAR 200800 AAA
TAFPQI
TAF AMD
KPQI 200800Z 2008/2106 VRB03KT P6SM SKC
     FM200930 02004KT P6SM BKN010
     FM202200 05002KT P6SM OVC009
      AMD LTD TO CLD VIS AND WIND=



000
FTUS41 KCAR 200800 AAA
TAFPQI
TAF AMD
KPQI 200800Z 2008/2106 VRB03KT P6SM SKC
     FM200930 02004KT P6SM BKN010
     FM202200 05002KT P6SM OVC009
      AMD LTD TO CLD VIS AND WIND=



000
FTUS41 KCAR 200800 AAB
TAFCAR
TAF AMD
KCAR 200800Z 2008/2106 34004KT P6SM SKC
     FM200900 01004KT P6SM -SHSN OVC009
     FM202100 05002KT P6SM -SHSN OVC008=



000
FTUS41 KCAR 200759 CCA
TAFCAR
TAF COR
KCAR 200759Z 2006/2106 32007KT P6SM SKC
     FM200900 02004KT P6SM BKN009
     FM202100 05002KT P6SM OVC008=



000
FTUS41 KCAR 200759 CCA
TAFCAR
TAF COR
KCAR 200759Z 2006/2106 32007KT P6SM SKC
     FM200900 02004KT P6SM BKN009
     FM202100 05002KT P6SM OVC008=



000
FTUS41 KCAR 200559
TAFCAR
TAF
KCAR 200559Z 2006/2106 32007KT P6SM SKC
     FM200700 02004KT P6SM BKN010
     FM202100 05002KT P6SM OVC008=



000
FTUS41 KCAR 200559
TAFBHB
TAF
KBHB 200559Z 2006/2106 36009G15KT P6SM SKC
     FM201500 02006KT P6SM BKN009
      AMD LTD TO CLD VIS AND WIND=



000
FTUS41 KCAR 200559
TAFPQI
TAF
KPQI 200559Z 2006/2106 VRB03KT P6SM SKC
     FM200730 02004KT P6SM BKN012
     FM202200 05002KT P6SM OVC009
      AMD LTD TO CLD VIS AND WIND=



000
FTUS41 KCAR 200559
TAFBGR
TAF
KBGR 200559Z 2006/2106 33006KT P6SM SKC
     FM201100 01006KT P6SM BKN009
     FM201700 01006KT P6SM BKN010
     FM202100 05002KT P6SM OVC009=



000
FTUS41 KCAR 200559
TAFHUL
TAF
KHUL 200559Z 2006/2106 VRB03KT P6SM SKC
     FM201300 02004KT P6SM BKN008
     FM201800 VRB03KT P6SM BKN010
     FM202100 05002KT P6SM OVC008=



000
FTUS41 KCAR 192326
TAFCAR
TAF
KCAR 192326Z 2000/2024 34008KT P6SM SKC
     FM200800 02004KT P6SM BKN015
     FM201500 VRB03KT P6SM BKN030=



000
FTUS41 KCAR 192326
TAFPQI
TAF
KPQI 192326Z 2000/2024 34008KT P6SM SKC
     FM200800 02004KT P6SM BKN015
     FM201500 VRB03KT P6SM BKN030
      AMD LTD TO CLD VIS AND WIND=



000
FTUS41 KCAR 192326
TAFHUL
TAF
KHUL 192326Z 2000/2024 36008KT P6SM SKC
     FM200800 02004KT P6SM BKN020
     FM201500 VRB03KT P6SM BKN035=



000
FTUS41 KCAR 192326
TAFBGR
TAF
KBGR 192326Z 2000/2024 33006KT P6SM SKC
     FM201200 02006KT P6SM SCT050=



000
FTUS41 KCAR 192326
TAFBHB
TAF
KBHB 192326Z 2000/2024 36006KT P6SM SCT025
      TEMPO 2000/2001 BKN025
     FM200100 36004KT P6SM SKC
     FM201500 02006KT P6SM SCT050
      AMD LTD TO CLD VIS AND WIND=



000
FTUS41 KCAR 192248 AAA
TAFBHB
TAF AMD
KBHB 192248Z 1923/2018 33004KT P6SM SCT025
      TEMPO 1923/1924 BKN025
     FM200000 02006KT P6SM SCT050
      AMD LTD TO CLD VIS AND WIND=



000
FTUS41 KCAR 191721
TAFBGR
TAF
KBGR 191721Z 1918/2018 32015KT P6SM BKN025
     FM192200 31006KT P6SM FEW040 BKN250=



000
FTUS41 KCAR 191721
TAFHUL
TAF
KHUL 191721Z 1918/2018 32012KT P6SM BKN025
      TEMPO 1918/1920 SCT025
     FM192000 31010G18KT P6SM SCT035
     FM192300 VRB03KT P6SM SKC
     FM200500 VRB03KT P6SM OVC020=



000
FTUS41 KCAR 191721
TAFCAR
TAF
KCAR 191721Z 1918/2018 32014KT P6SM SCT035
     FM192200 30007KT P6SM SKC
     FM200400 VRB03KT P6SM OVC015=



000
FTUS41 KCAR 191721
TAFBHB
TAF
KBHB 191721Z 1918/2018 33010KT P6SM OVC020
     FM192200 31006KT P6SM FEW045 BKN250
      AMD LTD TO CLD VIS AND WIND=



000
FTUS41 KCAR 191721
TAFPQI
TAF
KPQI 191721Z 1918/2018 32012KT P6SM SCT035 BKN070
     FM192200 30007KT P6SM SCT035
     FM200400 VRB03KT P6SM OVC020=



000
FTUS41 KCAR 191130 CCA
TAFBHB
TAF COR
KBHB 191130Z 1912/2012 31008KT P6SM VCSH BKN030
     FM191400 32009G17KT P6SM SCT035
     FM192200 31006KT P6SM FEW045 BKN250
      AMD LTD TO CLD VIS AND WIND=



000
FTUS41 KCAR 191128 CCA
TAFBGR
TAF COR
KBGR 191128Z 1912/2012 32008G14KT P6SM VCSH BKN028
     FM191500 32009G16KT P6SM SCT035
     FM192200 31006KT P6SM FEW040 BKN250=



000
FTUS41 KCAR 191126
TAFBGR
TAF
KBGR 191126Z 1912/2012 32010G18KT P6SM VCSH BKN028
     FM191500 32010KT P6SM SCT035
     FM192200 31006KT P6SM FEW040 BKN250=



000
FTUS41 KCAR 191126
TAFCAR
TAF
KCAR 191126Z 1912/2012 32009G16KT P6SM VCSH OVC018
     FM191500 32010G18KT P6SM OVC024
     FM191800 31009G15KT P6SM BKN030
     FM192200 30007KT P6SM SCT035=



000
FTUS41 KCAR 191126
TAFPQI
TAF
KPQI 191126Z 1912/2012 31008G14KT P6SM VCSH OVC018
     FM191500 31010G18KT P6SM OVC025
     FM191800 31009G15KT P6SM BKN035
     FM192200 30007KT P6SM SCT035=



000
FTUS41 KCAR 191126
TAFHUL
TAF
KHUL 191126Z 1912/2012 32009G15KT P6SM VCSH OVC018
     FM191500 31010G18KT P6SM OVC025
     FM191800 31009G15KT P6SM BKN035
     FM192200 30007KT P6SM SCT035=



000
FTUS41 KCAR 191126
TAFBHB
TAF
KBHB 191126Z 1912/2012 32010G18KT P6SM VCSH BKN035
     FM191500 32010KT P6SM SCT040
     FM192200 31006KT P6SM FEW045 BKN250
      AMD LTD TO CLD VIS AND WIND=



000
FTUS41 KCAR 190543
TAFBGR
TAF
KBGR 190543Z 1906/2006 32010G18KT P6SM VCSH BKN035
     FM191500 32010KT P6SM SCT040
     FM192200 31006KT P6SM FEW045 BKN250=



000
FTUS41 KCAR 190543
TAFCAR
TAF
KCAR 190543Z 1906/2006 33012G20KT 6SM -SHSN OVC016
     FM191200 32010G18KT P6SM OVC024
     FM191800 31010KT P6SM BKN030
     FM192200 30008KT P6SM SCT035=



000
FTUS41 KCAR 190543
TAFBHB
TAF
KBHB 190543Z 1906/2006 32010G18KT P6SM VCSH BKN035
     FM191500 32010KT P6SM SCT040
     FM192200 31006KT P6SM FEW045 BKN250
      AMD LTD TO CLD VIS AND WIND=



000
FTUS41 KCAR 190543
TAFPQI
TAF
KPQI 190543Z 1906/2006 33010G18KT 6SM -SHSN OVC016
     FM191200 32010G18KT P6SM OVC024
     FM191800 31010KT P6SM BKN030
     FM192200 30008KT P6SM SCT035=



000
FTUS41 KCAR 190543
TAFHUL
TAF
KHUL 190543Z 1906/2006 33010G18KT 6SM -SHSN OVC022
     FM191200 32010G18KT P6SM OVC028
     FM191800 31010KT P6SM BKN035
     FM192200 30008KT P6SM SCT040=



000
FTUS41 KCAR 190243 AAA
TAFHUL
TAF AMD
KHUL 190243Z 1903/1924 33008G16KT P6SM VCSH OVC025
      TEMPO 1903/1906 3SM -SHSN OVC015
     FM190600 33008KT P6SM OVC035
     FM191500 34010KT P6SM BKN040=



000
FTUS41 KCAR 190235 AAA
TAFCAR
TAF AMD
KCAR 190235Z 1903/1924 33012G22KT P6SM VCSH OVC035
      TEMPO 1903/1904 3SM -SHSN OVC025
     FM190600 33010G18KT P6SM OVC035
     FM191500 34010KT P6SM BKN040=



000
FTUS41 KCAR 190233 AAA
TAFPQI
TAF AMD
KPQI 190233Z 1903/1924 33012G22KT P6SM VCSH OVC035
      TEMPO 1903/1904 3SM -SHSN OVC025
     FM190600 33010G18KT P6SM OVC035
     FM191500 34010KT P6SM BKN040
      AMD LTD TO CLD VIS AND WIND=



000
FTUS41 KCAR 182337
TAFHUL
TAF
KHUL 182337Z 1900/1924 33010G18KT P6SM VCSH SCT025 OVC035
      TEMPO 1900/1902 3SM -SN BR BKN015 OVC025
     FM190200 33008G16KT P6SM VCSH OVC035
     FM190800 33008KT P6SM OVC035
     FM191500 34010KT P6SM BKN040=



000
FTUS41 KCAR 182337
TAFCAR
TAF
KCAR 182337Z 1900/1924 33012G22KT 5SM -SN BR SCT025 OVC035
      TEMPO 1900/1902 3SM -SN BR SCT015 OVC025
     FM190200 33012G22KT P6SM VCSH OVC035
     FM190800 33010G18KT P6SM OVC035
     FM191500 34010KT P6SM BKN040=



000
FTUS41 KCAR 182337
TAFBGR
TAF
KBGR 182337Z 1900/1924 30010G18KT P6SM VCSH BKN045
      TEMPO 1900/1902 6SM -SHSN OVC035
     FM190200 32010G18KT P6SM BKN045
     FM191500 34010KT P6SM SCT045=



000
FTUS41 KCAR 182337
TAFPQI
TAF
KPQI 182337Z 1900/1924 33012G22KT P6SM -SN SCT025 OVC035
      TEMPO 1900/1902 3SM -SN BR OVC025
     FM190200 33012G22KT P6SM VCSH OVC035
     FM190800 33010G18KT P6SM OVC035
     FM191500 34010KT P6SM BKN040
      AMD LTD TO CLD VIS AND WIND=



000
FTUS41 KCAR 182337
TAFBHB
TAF
KBHB 182337Z 1900/1924 31008G16KT P6SM VCSH BKN045
     FM190200 32008KT P6SM BKN045
     FM191500 34010KT P6SM SCT045
      AMD LTD TO CLD VIS AND WIND=



000
FTUS41 KCAR 182226 AAA
TAFBHB
TAF AMD
KBHB 182226Z 1822/1918 31008KT P6SM VCSH SCT015 OVC025
      TEMPO 1822/1824 6SM -SHSN OVC015
     FM190000 31008KT P6SM BKN045
      AMD LTD TO CLD VIS AND WIND=



000
FTUS41 KCAR 182221 AAA
TAFBGR
TAF AMD
KBGR 182221Z 1822/1918 31010G18KT P6SM VCSH SCT025 OVC050
      TEMPO 1822/1824 5SM -SHSN BKN025
     FM190000 31008KT P6SM BKN045=



    US Dept of Commerce
    National Oceanic and Atmospheric Administration
    National Weather Service
    1325 East West Highway
    Silver Spring, MD 20910
    Page Author: NWS Internet Services Team
Disclaimer
Information Quality
Credits
Glossary
Privacy Policy
Freedom of Information Act (FOIA)
About Us
Career Opportunities